createdAt,value
2016-12-04T00:00:49.573Z,107.58
2016-12-04T00:01:49.559Z,106.34
2016-12-04T00:02:49.557Z,105.88
2016-12-04T00:03:49.572Z,104.4
2016-12-04T00:04:49.568Z,103.14
2016-12-04T00:05:49.551Z,102.87
2016-12-04T00:06:49.546Z,100.14
2016-12-04T00:07:49.539Z,98.66
2016-12-04T00:08:49.546Z,96.87
2016-12-04T00:09:49.574Z,96.42
2016-12-04T00:10:49.565Z,93.94
2016-12-04T00:11:49.586Z,91.86
2016-12-04T00:12:49.552Z,91.94
2016-12-04T00:13:49.552Z,90.15
2016-12-04T00:14:49.596Z,88.14
2016-12-04T00:15:49.559Z,86.15
2016-12-04T00:16:49.555Z,85.13
2016-12-04T00:17:49.557Z,84.16
2016-12-04T00:18:49.563Z,83.14
2016-12-04T00:19:49.577Z,81.1
2016-12-04T00:20:49.799Z,78.62
2016-12-04T00:21:49.556Z,76.56
2016-12-04T00:22:49.559Z,74.3
2016-12-04T00:23:49.575Z,72.5
2016-12-04T00:24:49.621Z,72.04
2016-12-04T00:25:49.559Z,70.8
2016-12-04T00:26:49.559Z,69.77
2016-12-04T00:27:49.557Z,67.71
2016-12-04T00:28:49.577Z,68.33
2016-12-04T00:29:49.584Z,67.31
2016-12-04T00:30:49.574Z,66.54
2016-12-04T00:31:49.569Z,66.6
2016-12-04T00:32:50.601Z,67.34
2016-12-04T00:33:49.645Z,67.4
2016-12-04T00:34:49.589Z,68.19
2016-12-04T00:35:49.561Z,67.91
2016-12-04T00:36:49.566Z,66.95
2016-12-04T00:37:49.600Z,66.67
2016-12-04T00:38:49.564Z,64.34
2016-12-04T00:39:49.590Z,64.1
2016-12-04T00:40:49.571Z,65.14
2016-12-04T00:41:50.211Z,62.33
2016-12-04T00:42:49.603Z,61.8
2016-12-04T00:43:49.594Z,61.32
2016-12-04T00:44:49.601Z,61.33
2016-12-04T00:45:49.576Z,61.36
2016-12-04T00:46:49.597Z,60.3
2016-12-04T00:47:49.578Z,59.82
2016-12-04T00:48:49.582Z,58.76
2016-12-04T00:49:49.592Z,58.19
2016-12-04T00:50:49.567Z,56.72
2016-12-04T00:51:49.579Z,55.66
2016-12-04T00:52:49.581Z,55.94
2016-12-04T00:53:49.578Z,53.86
2016-12-04T00:54:49.717Z,53.65
2016-12-04T00:55:49.595Z,52.63
2016-12-04T00:56:49.591Z,52.58
2016-12-04T00:57:49.591Z,52.66
2016-12-04T00:58:49.599Z,51.51
2016-12-04T00:59:49.638Z,51.8
2016-12-04T01:00:50.090Z,51.51
2016-12-04T01:01:49.602Z,51.81
2016-12-04T01:02:49.610Z,52.54
2016-12-04T01:03:49.609Z,53.08
2016-12-04T01:04:49.604Z,54.12
2016-12-04T01:05:49.607Z,54.97
2016-12-04T01:06:49.601Z,55.18
2016-12-04T01:07:49.584Z,55.73
2016-12-04T01:08:49.630Z,56.55
2016-12-04T01:09:49.601Z,55.78
2016-12-04T01:10:49.601Z,54.69
2016-12-04T01:11:49.622Z,54.99
2016-12-04T01:12:49.575Z,55.26
2016-12-04T01:13:49.599Z,54.73
2016-12-04T01:14:49.608Z,54.23
2016-12-04T01:15:49.614Z,54.98
2016-12-04T01:16:49.700Z,54.24
2016-12-04T01:17:49.588Z,54.5
2016-12-04T01:18:49.606Z,53.47
2016-12-04T01:19:49.807Z,54.49
2016-12-04T01:20:50.334Z,52.94
2016-12-04T01:21:49.612Z,54
2016-12-04T01:22:49.694Z,53.99
2016-12-04T01:23:49.631Z,52.93
2016-12-04T01:24:49.618Z,52.39
2016-12-04T01:25:49.605Z,51.43
2016-12-04T01:26:49.611Z,50.15
2016-12-04T01:27:50.538Z,49.61
2016-12-04T01:28:49.601Z,49.41
2016-12-04T01:29:49.609Z,49.4
2016-12-04T01:30:49.630Z,49.42
2016-12-04T01:31:49.609Z,48.08
2016-12-04T01:32:49.598Z,48.63
2016-12-04T01:33:49.612Z,47.88
2016-12-04T01:34:49.626Z,47.87
2016-12-04T01:35:49.607Z,46.56
2016-12-04T01:36:49.617Z,46.57
2016-12-04T01:37:49.609Z,45.53
2016-12-04T01:38:49.611Z,46.15
2016-12-04T01:39:49.610Z,45.88
2016-12-04T01:40:49.607Z,45.4
2016-12-04T01:41:49.609Z,44.33
2016-12-04T01:42:49.622Z,43.87
2016-12-04T01:43:49.644Z,42.6
2016-12-04T01:44:49.652Z,42.44
2016-12-04T01:45:49.614Z,40.88
2016-12-04T01:46:49.631Z,39.09
2016-12-04T01:47:49.620Z,38.81
2016-12-04T01:48:50.526Z,39.05
2016-12-04T01:49:49.647Z,38.76
2016-12-04T01:50:49.820Z,39.31
2016-12-04T01:51:49.607Z,39.75
2016-12-04T01:52:49.635Z,40.3
2016-12-04T01:53:50.427Z,40.53
2016-12-04T01:54:49.627Z,40.76
2016-12-04T01:55:49.635Z,41.49
2016-12-04T01:56:49.867Z,42.2
2016-12-04T01:57:49.842Z,42.95
2016-12-04T01:58:49.626Z,42.7
2016-12-04T01:59:49.637Z,44.24
2016-12-04T02:00:49.626Z,45.24
2016-12-04T02:01:49.631Z,45.55
2016-12-04T02:02:49.632Z,45.53
2016-12-04T02:03:50.307Z,45.57
2016-12-04T02:04:49.667Z,45.82
2016-12-04T02:05:49.615Z,45.54
2016-12-04T02:06:49.622Z,45.3
2016-12-04T02:07:49.631Z,45.01
2016-12-04T02:08:49.608Z,43.42
2016-12-04T02:09:49.642Z,42.37
2016-12-04T02:10:49.644Z,42.12
2016-12-04T02:11:50.562Z,41.82
2016-12-04T02:12:49.632Z,41.02
2016-12-04T02:13:49.622Z,39.71
2016-12-04T02:14:49.648Z,40.72
2016-12-04T02:15:49.742Z,38.93
2016-12-04T02:16:49.642Z,38.13
2016-12-04T02:17:49.629Z,37.43
2016-12-04T02:18:49.674Z,36.05
2016-12-04T02:19:49.811Z,34.48
2016-12-04T02:20:49.620Z,33.73
2016-12-04T02:21:49.638Z,32.16
2016-12-04T02:22:49.642Z,31.62
2016-12-04T02:23:49.665Z,30.32
2016-12-04T02:24:49.683Z,27.99
2016-12-04T02:25:49.628Z,26.46
2016-12-04T02:26:49.627Z,25.48
2016-12-04T02:27:49.969Z,25.18
2016-12-04T02:28:49.639Z,22.63
2016-12-04T02:29:49.662Z,21.01
2016-12-04T02:30:49.639Z,20.77
2016-12-04T02:31:49.647Z,19.49
2016-12-04T02:32:49.647Z,19.5
2016-12-04T02:33:49.643Z,18.44
2016-12-04T02:34:49.682Z,18.19
2016-12-04T02:35:49.645Z,17.14
2016-12-04T02:36:49.690Z,15.83
2016-12-04T02:37:49.658Z,16.15
2016-12-04T02:38:49.661Z,13.82
2016-12-04T02:39:49.658Z,11.71
2016-12-04T02:40:49.679Z,12
2016-12-04T02:41:49.654Z,9.97
2016-12-04T02:42:49.645Z,8.58
2016-12-04T02:43:49.666Z,9.1
2016-12-04T02:44:49.781Z,7.77
2016-12-04T02:45:49.643Z,8.36
2016-12-04T02:46:49.665Z,8.03
2016-12-04T02:51:17.896Z,5.68
2016-12-04T02:52:17.903Z,7.04
2016-12-04T02:53:17.908Z,6.25
2016-12-04T02:54:17.917Z,5.96
2016-12-04T02:55:17.986Z,5.96
2016-12-04T02:56:17.929Z,5.42
2016-12-04T02:57:17.914Z,5.65
2016-12-04T02:58:17.899Z,6.67
2016-12-04T02:59:17.891Z,6.64
2016-12-04T03:00:17.888Z,7.43
2016-12-04T03:01:17.944Z,8.22
2016-12-04T03:02:17.917Z,8.5
2016-12-04T03:03:17.910Z,9.28
2016-12-04T03:04:17.949Z,10.84
2016-12-04T03:05:17.920Z,11.32
2016-12-04T03:06:17.927Z,12.6
2016-12-04T03:07:18.999Z,12.3
2016-12-04T03:08:17.924Z,13.6
2016-12-04T03:09:17.915Z,13.89
2016-12-04T03:10:17.929Z,14.9
2016-12-04T03:11:17.937Z,15.1
2016-12-04T03:12:17.910Z,15.65
2016-12-04T03:13:17.939Z,16.62
2016-12-04T03:14:17.916Z,16.85
2016-12-04T03:15:17.918Z,17.04
2016-12-04T03:16:17.942Z,17.84
2016-12-04T03:17:17.960Z,17.57
2016-12-04T03:18:17.914Z,17.55
2016-12-04T03:19:17.944Z,18.64
2016-12-04T03:20:17.991Z,17.84
2016-12-04T03:21:17.916Z,18.34
2016-12-04T03:22:17.913Z,17.78
2016-12-04T03:23:18.020Z,18.26
2016-12-04T03:24:17.921Z,20.13
2016-12-04T03:25:17.927Z,20.61
2016-12-04T03:26:17.919Z,20.83
2016-12-04T03:27:17.948Z,22.18
2016-12-04T03:28:17.911Z,21.31
2016-12-04T03:29:17.916Z,22.05
2016-12-04T03:30:17.920Z,22.3
2016-12-04T03:31:17.912Z,23.59
2016-12-04T03:32:17.903Z,23.31
2016-12-04T03:33:17.963Z,23.53
2016-12-04T03:34:17.906Z,23.07
2016-12-04T03:35:18.040Z,22.52
2016-12-04T03:36:17.933Z,21.5
2016-12-04T03:37:17.934Z,20.41
2016-12-04T03:38:17.913Z,19.11
2016-12-04T03:39:17.924Z,19.12
2016-12-04T03:40:17.913Z,18.33
2016-12-04T03:41:17.932Z,18.09
2016-12-04T03:42:17.929Z,17.86
2016-12-04T03:43:17.936Z,16.55
2016-12-04T03:44:17.962Z,14.13
2016-12-04T03:45:17.929Z,14.22
2016-12-04T03:46:18.007Z,12.66
2016-12-04T03:47:18.264Z,12.4
2016-12-04T03:48:17.922Z,10.57
2016-12-04T03:49:17.973Z,9.24
2016-12-04T03:50:17.937Z,8.18
2016-12-04T03:51:17.946Z,6.11
2016-12-04T03:52:17.924Z,5.36
2016-12-04T03:53:17.932Z,4.84
2016-12-04T03:54:17.943Z,3.26
2016-12-04T03:55:17.930Z,2.3
2016-12-04T03:56:17.934Z,0.68
2016-12-04T03:57:17.927Z,-0.07
2016-12-04T03:58:17.935Z,0.43
2016-12-04T03:59:17.943Z,0.2
2016-12-04T04:00:17.952Z,-2.18
2016-12-04T04:01:17.941Z,-4.26
2016-12-04T04:02:17.949Z,-4.55
2016-12-04T04:03:17.938Z,-5
2016-12-04T04:04:17.930Z,-6.13
2016-12-04T04:05:17.930Z,-5.88
2016-12-04T04:06:17.946Z,-6.7
2016-12-04T04:07:17.936Z,-6.11
2016-12-04T04:08:17.954Z,-7.4
2016-12-04T04:09:17.956Z,-8.21
2016-12-04T04:10:18.087Z,-7.89
2016-12-04T04:11:17.956Z,-8.16
2016-12-04T04:12:17.940Z,-7.11
2016-12-04T04:13:17.969Z,-8.4
2016-12-04T04:14:17.954Z,-8.1
2016-12-04T04:15:17.964Z,-8.96
2016-12-04T04:16:17.989Z,-8.69
2016-12-04T04:17:18.002Z,-8.11
2016-12-04T04:18:18.052Z,-8.89
2016-12-04T04:19:17.943Z,-8.62
2016-12-04T04:20:17.944Z,-10.18
2016-12-04T04:21:17.953Z,-10.21
2016-12-04T04:22:17.949Z,-11.49
2016-12-04T04:23:18.815Z,-9.93
2016-12-04T04:24:17.941Z,-11.26
2016-12-04T04:25:17.951Z,-11.78
2016-12-04T04:26:17.974Z,-12.28
2016-12-04T04:27:17.968Z,-13.33
2016-12-04T04:28:17.951Z,-14.33
2016-12-04T04:29:17.957Z,-15.89
2016-12-04T04:30:17.964Z,-16.61
2016-12-04T04:31:17.986Z,-17.69
2016-12-04T04:32:17.956Z,-17.95
2016-12-04T04:33:18.022Z,-20.31
2016-12-04T04:34:17.967Z,-21.35
2016-12-04T04:35:18.071Z,-23.22
2016-12-04T04:36:17.957Z,-24.78
2016-12-04T04:37:17.983Z,-26.04
2016-12-04T04:38:17.970Z,-27.64
2016-12-04T04:39:17.975Z,-29.13
2016-12-04T04:40:17.986Z,-29.42
2016-12-04T04:41:17.958Z,-30.54
2016-12-04T04:42:17.954Z,-30.73
2016-12-04T04:43:17.959Z,-31.36
2016-12-04T04:44:17.997Z,-32.19
2016-12-04T04:45:17.964Z,-31.87
2016-12-04T04:46:17.962Z,-32.16
2016-12-04T04:47:17.957Z,-30.61
2016-12-04T04:48:17.968Z,-31.41
2016-12-04T04:49:17.954Z,-33.04
2016-12-04T04:50:17.959Z,-32.75
2016-12-04T04:51:18.055Z,-32.28
2016-12-04T04:52:17.959Z,-32.79
2016-12-04T04:53:17.976Z,-33.84
2016-12-04T04:54:17.960Z,-34.68
2016-12-04T04:55:17.965Z,-34.11
2016-12-04T04:56:18.002Z,-34.66
2016-12-04T04:57:18.000Z,-34.6
2016-12-04T04:58:18.052Z,-34.32
2016-12-04T04:59:17.968Z,-34.32
2016-12-04T05:00:17.958Z,-34.77
2016-12-04T05:01:17.975Z,-35.31
2016-12-04T05:02:17.959Z,-37.1
2016-12-04T05:03:17.966Z,-38.71
2016-12-04T05:04:17.970Z,-40.02
2016-12-04T05:05:17.972Z,-41.54
2016-12-04T05:06:17.975Z,-44.48
2016-12-04T05:07:17.966Z,-43.09
2016-12-04T05:08:17.966Z,-42.54
2016-12-04T05:09:17.983Z,-42.29
2016-12-04T05:10:18.275Z,-40.69
2016-12-04T05:11:17.991Z,-40.15
2016-12-04T05:12:17.972Z,-39.9
2016-12-04T05:13:17.976Z,-40.44
2016-12-04T05:14:18.019Z,-41.2
2016-12-04T05:15:17.973Z,-43.05
2016-12-04T05:16:17.975Z,-44.08
2016-12-04T05:17:17.979Z,-45.94
2016-12-04T05:18:17.971Z,-45.9
2016-12-04T05:19:17.977Z,-46.21
2016-12-04T05:20:17.995Z,-46.19
2016-12-04T05:21:18.024Z,-45.91
2016-12-04T05:22:17.981Z,-46.15
2016-12-04T05:23:17.986Z,-47.28
2016-12-04T05:24:17.970Z,-46.41
2016-12-04T05:25:17.984Z,-45.89
2016-12-04T05:26:17.995Z,-45.36
2016-12-04T05:27:17.985Z,-44.58
2016-12-04T05:28:18.030Z,-42.12
2016-12-04T05:29:17.981Z,-39.49
2016-12-04T05:30:17.991Z,-40.03
2016-12-04T05:31:17.984Z,-37.4
2016-12-04T05:32:18.014Z,-36.33
2016-12-04T05:33:17.974Z,-36.57
2016-12-04T05:34:17.989Z,-35.01
2016-12-04T05:35:17.984Z,-33.38
2016-12-04T05:36:18.013Z,-33.66
2016-12-04T05:37:17.992Z,-33.39
2016-12-04T05:38:17.989Z,-34.72
2016-12-04T05:39:17.994Z,-35.3
2016-12-04T05:40:18.000Z,-35.52
2016-12-04T05:41:17.988Z,-35.97
2016-12-04T05:42:18.000Z,-37.76
2016-12-04T05:43:18.003Z,-39.15
2016-12-04T05:44:17.996Z,-40.76
2016-12-04T05:45:18.007Z,-41.26
2016-12-04T05:46:17.988Z,-43.94
2016-12-04T05:47:18.028Z,-45.25
2016-12-04T05:48:17.993Z,-46.61
2016-12-04T05:49:17.996Z,-47.39
2016-12-04T05:50:17.991Z,-48.87
2016-12-04T05:51:18.017Z,-50.74
2016-12-04T05:52:17.996Z,-53.43
2016-12-04T05:53:18.006Z,-53.97
2016-12-04T05:54:18.000Z,-53.92
2016-12-04T05:55:17.993Z,-53.64
2016-12-04T05:56:17.999Z,-56.3
2016-12-04T05:57:17.999Z,-55.76
2016-12-04T05:58:18.012Z,-55.22
2016-12-04T05:59:17.996Z,-54.65
2016-12-04T06:00:18.015Z,-54.44
2016-12-04T06:01:18.006Z,-53.92
2016-12-04T06:02:17.999Z,-52.5
2016-12-04T06:03:18.000Z,-51.44
2016-12-04T06:04:18.012Z,-51.47
2016-12-04T06:05:18.008Z,-51.16
2016-12-04T06:06:18.006Z,-52.02
2016-12-04T06:07:17.997Z,-51.9
2016-12-04T06:08:18.003Z,-53.55
2016-12-04T06:09:18.001Z,-54.31
2016-12-04T06:10:18.001Z,-54.63
2016-12-04T06:11:18.004Z,-54.82
2016-12-04T06:12:18.014Z,-54.82
2016-12-04T06:13:18.010Z,-55.61
2016-12-04T06:14:18.014Z,-56.61
2016-12-04T06:15:18.134Z,-57.46
2016-12-04T06:16:18.088Z,-57.93
2016-12-04T06:17:18.006Z,-58.22
2016-12-04T06:18:18.614Z,-59.25
2016-12-04T06:19:18.012Z,-61.15
2016-12-04T06:20:18.018Z,-61.52
2016-12-04T06:21:18.965Z,-62.61
2016-12-04T06:22:18.031Z,-63.88
2016-12-04T06:23:18.023Z,-65.87
2016-12-04T06:24:18.023Z,-67.45
2016-12-04T06:25:18.056Z,-68.18
2016-12-04T06:26:18.007Z,-68.69
2016-12-04T06:27:18.031Z,-71.12
2016-12-04T06:28:18.007Z,-72.45
2016-12-04T06:29:18.052Z,-72.96
2016-12-04T06:30:18.038Z,-74.55
2016-12-04T06:31:18.039Z,-74.81
2016-12-04T06:32:18.152Z,-76.19
2016-12-04T06:33:18.006Z,-75.87
2016-12-04T06:34:18.042Z,-77.27
2016-12-04T06:35:18.026Z,-75.96
2016-12-04T06:36:18.030Z,-77.56
2016-12-04T06:37:18.058Z,-77
2016-12-04T06:38:18.029Z,-77.01
2016-12-04T06:39:18.033Z,-75.56
2016-12-04T06:40:18.016Z,-76.42
2016-12-04T06:41:18.064Z,-76.36
2016-12-04T06:42:18.033Z,-77.53
2016-12-04T06:43:18.104Z,-77.84
2016-12-04T06:44:18.023Z,-76.67
2016-12-04T06:45:18.034Z,-77.74
2016-12-04T06:46:18.027Z,-78.27
2016-12-04T06:47:18.029Z,-78.49
2016-12-04T06:48:18.037Z,-78.21
2016-12-04T06:49:18.045Z,-78.27
2016-12-04T06:50:18.039Z,-79.02
2016-12-04T06:51:18.041Z,-79.79
2016-12-04T06:52:18.018Z,-80.68
2016-12-04T06:53:18.055Z,-82.53
2016-12-04T06:54:18.049Z,-83.55
2016-12-04T06:55:18.628Z,-84.59
2016-12-04T06:56:18.036Z,-85.18
2016-12-04T06:57:18.031Z,-85.19
2016-12-04T06:58:18.054Z,-85.38
2016-12-04T06:59:18.035Z,-86.69
2016-12-04T07:00:18.063Z,-85.93
2016-12-04T07:01:18.041Z,-85.9
2016-12-04T07:02:18.037Z,-88.05
2016-12-04T07:03:18.046Z,-88.61
2016-12-04T07:04:18.042Z,-88.05
2016-12-04T07:05:18.039Z,-89.93
2016-12-04T07:06:18.041Z,-89.88
2016-12-04T07:07:18.049Z,-89.86
2016-12-04T07:08:18.014Z,-91.73
2016-12-04T07:09:18.030Z,-90.58
2016-12-04T07:10:18.040Z,-90.84
2016-12-04T07:11:18.076Z,-90.81
2016-12-04T07:12:18.129Z,-90.27
2016-12-04T07:13:18.046Z,-89.44
2016-12-04T07:14:18.066Z,-88.64
2016-12-04T07:15:18.026Z,-87.85
2016-12-04T07:16:18.035Z,-86.79
2016-12-04T07:17:18.038Z,-85.39
2016-12-04T07:18:18.047Z,-85.95
2016-12-04T07:19:18.024Z,-86.73
2016-12-04T07:20:18.040Z,-86.94
2016-12-04T07:21:18.042Z,-87.73
2016-12-04T07:22:18.093Z,-88.77
2016-12-04T07:23:18.053Z,-89
2016-12-04T07:24:18.030Z,-90.63
2016-12-04T07:25:18.030Z,-91.4
2016-12-04T07:26:18.035Z,-91.1
2016-12-04T07:27:18.046Z,-93.53
2016-12-04T07:28:18.044Z,-95.14
2016-12-04T07:29:18.051Z,-97.25
2016-12-04T07:30:18.040Z,-98.61
2016-12-04T07:31:18.046Z,-100.81
2016-12-04T07:32:18.041Z,-102.16
2016-12-04T07:33:18.031Z,-102.64
2016-12-04T07:34:18.043Z,-104.54
2016-12-04T07:35:18.038Z,-103.73
2016-12-04T07:36:18.053Z,-104.84
2016-12-04T07:37:18.070Z,-104.85
2016-12-04T07:38:18.093Z,-105.1
2016-12-04T07:39:18.039Z,-104.31
2016-12-04T07:40:18.055Z,-103.73
2016-12-04T07:41:18.040Z,-104.09
2016-12-04T07:42:18.075Z,-101.87
2016-12-04T07:43:18.056Z,-101.6
2016-12-04T07:44:18.048Z,-101.09
2016-12-04T07:45:18.494Z,-101.04
2016-12-04T07:46:18.032Z,-100.02
2016-12-04T07:47:18.061Z,-98.66
2016-12-04T07:48:18.045Z,-97.6
2016-12-04T07:49:18.056Z,-95.93
2016-12-04T07:50:18.054Z,-94.27
2016-12-04T07:51:18.146Z,-94.02
2016-12-04T07:52:18.193Z,-91.88
2016-12-04T07:53:18.089Z,-89.45
2016-12-04T07:54:18.184Z,-88.35
2016-12-04T07:55:18.091Z,-86.49
2016-12-04T07:56:18.070Z,-84.33
2016-12-04T07:57:18.072Z,-82.73
2016-12-04T07:58:18.064Z,-79.77
2016-12-04T07:59:18.066Z,-77.85
2016-12-04T08:00:18.066Z,-75.71
2016-12-04T08:01:18.059Z,-73.58
2016-12-04T08:02:18.079Z,-71.42
2016-12-04T08:03:18.083Z,-68.78
2016-12-04T08:04:18.059Z,-66.37
2016-12-04T08:05:18.091Z,-64.72
2016-12-04T08:06:18.059Z,-61.28
2016-12-04T08:07:18.124Z,-58.07
2016-12-04T08:08:18.081Z,-55.95
2016-12-04T08:09:18.069Z,-54.14
2016-12-04T08:10:18.070Z,-50.69
2016-12-04T08:11:18.075Z,-47.47
2016-12-04T08:12:18.108Z,-44.32
2016-12-04T08:13:18.060Z,-40.06
2016-12-04T08:14:18.074Z,-36.63
2016-12-04T08:15:18.086Z,-33.21
2016-12-04T08:16:18.076Z,-30.52
2016-12-04T08:17:18.092Z,-29.51
2016-12-04T08:18:18.068Z,-26.06
2016-12-04T08:19:18.084Z,-24.73
2016-12-04T08:20:18.081Z,-21.31
2016-12-04T08:21:18.078Z,-18.96
2016-12-04T08:22:18.082Z,-16.35
2016-12-04T08:23:18.092Z,-14.47
2016-12-04T08:24:18.067Z,-12.11
2016-12-04T08:25:18.086Z,-10.26
2016-12-04T08:26:18.075Z,-8.17
2016-12-04T08:27:18.105Z,-6.08
2016-12-04T08:28:18.077Z,-3.93
2016-12-04T08:29:18.080Z,-0.79
2016-12-04T08:30:18.072Z,0.2
2016-12-04T08:31:18.077Z,3.4
2016-12-04T08:32:18.077Z,6.54
2016-12-04T08:33:18.097Z,8.9
2016-12-04T08:34:18.119Z,10.91
2016-12-04T08:35:18.088Z,12.78
2016-12-04T08:36:18.096Z,14.58
2016-12-04T08:37:18.112Z,16.42
2016-12-04T08:38:18.098Z,18.27
2016-12-04T08:39:18.084Z,21.41
2016-12-04T08:40:18.093Z,23.69
2016-12-04T08:41:18.097Z,26.88
2016-12-04T08:42:18.094Z,29.74
2016-12-04T08:43:18.082Z,32.09
2016-12-04T08:44:18.086Z,35.23
2016-12-04T08:45:18.071Z,38.05
2016-12-04T08:46:18.073Z,40.05
2016-12-04T08:47:18.086Z,42.9
2016-12-04T08:48:18.105Z,45.46
2016-12-04T08:49:18.096Z,47.75
2016-12-04T08:50:18.086Z,49.53
2016-12-04T08:51:18.085Z,53.4
2016-12-04T08:52:18.108Z,55.98
2016-12-04T08:53:18.088Z,58.54
2016-12-04T08:54:18.083Z,61.34
2016-12-04T08:55:18.106Z,63.89
2016-12-04T08:56:18.083Z,67.69
2016-12-04T08:57:18.117Z,69.75
2016-12-04T08:58:18.089Z,71.77
2016-12-04T08:59:18.799Z,73.73
2016-12-04T09:00:18.101Z,77.03
2016-12-04T09:01:18.108Z,79.52
2016-12-04T09:02:18.117Z,82.24
2016-12-04T09:03:18.105Z,84.01
2016-12-04T09:04:18.092Z,87.06
2016-12-04T09:05:18.111Z,89.52
2016-12-04T09:06:18.111Z,92.53
2016-12-04T09:07:18.133Z,94.81
2016-12-04T09:08:18.108Z,97.84
2016-12-04T09:09:18.109Z,100.62
2016-12-04T09:10:18.098Z,103.88
2016-12-04T09:11:18.112Z,106.15
2016-12-04T09:12:18.128Z,108.63
2016-12-04T09:13:18.102Z,111.4
2016-12-04T09:14:18.089Z,113.93
2016-12-04T09:15:18.142Z,116.88
2016-12-04T09:16:18.120Z,120.16
2016-12-04T09:17:18.124Z,122.92
2016-12-04T09:18:18.104Z,125.19
2016-12-04T09:19:18.192Z,128.11
2016-12-04T09:20:18.112Z,129.37
2016-12-04T09:21:18.112Z,132.08
2016-12-04T09:22:18.135Z,133.8
2016-12-04T09:23:18.124Z,136.29
2016-12-04T09:24:18.142Z,139.01
2016-12-04T09:25:18.115Z,140.77
2016-12-04T09:26:18.126Z,142.98
2016-12-04T09:27:18.152Z,145.25
2016-12-04T09:28:18.118Z,146.66
2016-12-04T09:29:18.114Z,148.95
2016-12-04T09:30:18.099Z,151.11
2016-12-04T09:31:18.111Z,153.59
2016-12-04T09:32:18.127Z,157.05
2016-12-04T09:33:18.115Z,158.72
2016-12-04T09:34:20.940Z,161.88
2016-12-04T09:35:18.111Z,164.05
2016-12-04T09:36:20.180Z,166.54
2016-12-04T09:37:19.921Z,169.45
2016-12-04T09:38:19.731Z,171.46
2016-12-04T09:39:20.556Z,173.85
2016-12-04T09:40:20.319Z,176.32
2016-12-04T09:41:20.652Z,178.02
2016-12-04T09:42:20.502Z,181.67
2016-12-04T09:43:20.172Z,183.13
2016-12-04T09:44:20.038Z,186
2016-12-04T09:45:20.819Z,189.19
2016-12-04T09:46:20.294Z,190.84
2016-12-04T09:47:21.498Z,194.43
2016-12-04T09:48:20.666Z,196.68
2016-12-04T09:49:20.913Z,199.33
2016-12-04T09:50:20.352Z,202.46
2016-12-04T09:51:21.180Z,205.05
2016-12-04T09:52:21.290Z,208.49
2016-12-04T09:53:20.674Z,210.37
2016-12-04T09:54:20.110Z,212
2016-12-04T09:55:20.656Z,215.33
2016-12-04T09:56:20.980Z,217.49
2016-12-04T09:57:20.155Z,219.85
2016-12-04T09:58:20.429Z,222.71
2016-12-04T09:59:19.956Z,225.87
2016-12-04T10:00:20.039Z,228.46
2016-12-04T10:01:20.750Z,231.54
2016-12-04T10:02:18.140Z,234.46
2016-12-04T10:03:18.137Z,237.3
2016-12-04T10:04:18.140Z,240.14
2016-12-04T10:05:18.150Z,242.92
2016-12-04T10:06:18.137Z,245.97
2016-12-04T10:07:18.166Z,249.06
2016-12-04T10:08:18.132Z,251.37
2016-12-04T10:09:18.201Z,254.45
2016-12-04T10:10:18.131Z,257.27
2016-12-04T10:11:18.127Z,260.29
2016-12-04T10:12:18.146Z,263.26
2016-12-04T10:13:18.123Z,265.32
2016-12-04T10:14:18.132Z,267.89
2016-12-04T10:15:18.388Z,271.6
2016-12-04T10:16:18.137Z,273.67
2016-12-04T10:17:18.174Z,277.6
2016-12-04T10:18:18.144Z,279.63
2016-12-04T10:19:18.124Z,281.28
2016-12-04T10:20:18.133Z,283.61
2016-12-04T10:21:18.134Z,285.63
2016-12-04T10:22:18.344Z,288.68
2016-12-04T10:23:18.136Z,290.21
2016-12-04T10:24:18.163Z,292.58
2016-12-04T10:25:18.135Z,294.79
2016-12-04T10:26:18.171Z,297.09
2016-12-04T10:27:18.150Z,299.66
2016-12-04T10:28:18.222Z,301.9
2016-12-04T10:29:18.161Z,303.92
2016-12-04T10:30:18.696Z,305.94
2016-12-04T10:31:18.161Z,308.44
2016-12-04T10:32:18.168Z,309.57
2016-12-04T10:33:18.144Z,312.04
2016-12-04T10:34:18.147Z,314.56
2016-12-04T10:35:18.143Z,317.08
2016-12-04T10:36:18.148Z,319.58
2016-12-04T10:37:18.168Z,321.58
2016-12-04T10:38:18.148Z,322.71
2016-12-04T10:39:18.142Z,325.39
2016-12-04T10:40:18.672Z,327.19
2016-12-04T10:41:18.154Z,330.13
2016-12-04T10:42:18.178Z,332.43
2016-12-04T10:43:18.154Z,334.16
2016-12-04T10:44:18.162Z,336.39
2016-12-04T10:45:18.155Z,338.67
2016-12-04T10:46:18.166Z,341.39
2016-12-04T10:47:18.213Z,342.69
2016-12-04T10:48:18.174Z,345.66
2016-12-04T10:49:18.164Z,348.33
2016-12-04T10:50:18.164Z,350.75
2016-12-04T10:51:18.150Z,353
2016-12-04T10:52:18.187Z,354.59
2016-12-04T10:53:18.168Z,356.58
2016-12-04T10:54:18.154Z,358.15
2016-12-04T10:55:18.167Z,360.79
2016-12-04T10:56:18.161Z,362.78
2016-12-04T10:57:18.170Z,364.56
2016-12-04T10:58:18.171Z,367.46
2016-12-04T10:59:18.170Z,368.97
2016-12-04T11:00:18.163Z,370.29
2016-12-04T11:01:18.184Z,371.8
2016-12-04T11:02:18.405Z,372.94
2016-12-04T11:03:18.162Z,374.5
2016-12-04T11:04:18.160Z,375.83
2016-12-04T11:05:18.303Z,377.14
2016-12-04T11:06:18.195Z,379.15
2016-12-04T11:07:18.202Z,381.39
2016-12-04T11:08:18.204Z,382
2016-12-04T11:09:18.167Z,384.02
2016-12-04T11:10:18.162Z,386
2016-12-04T11:11:18.176Z,386.59
2016-12-04T11:12:18.189Z,387.47
2016-12-04T11:13:18.161Z,388.56
2016-12-04T11:14:18.162Z,390.08
2016-12-04T11:15:18.188Z,391.62
2016-12-04T11:16:18.182Z,393.39
2016-12-04T11:17:18.192Z,395.07
2016-12-04T11:18:18.517Z,396.56
2016-12-04T11:19:18.170Z,398.58
2016-12-04T11:20:18.239Z,399.41
2016-12-04T11:21:18.169Z,400.65
2016-12-04T11:22:18.184Z,402.39
2016-12-04T11:23:18.196Z,404.1
2016-12-04T11:24:18.202Z,405.66
2016-12-04T11:25:18.190Z,407.17
2016-12-04T11:26:18.191Z,408.98
2016-12-04T11:27:18.327Z,410.46
2016-12-04T11:28:18.172Z,411.24
2016-12-04T11:29:18.201Z,412.51
2016-12-04T11:30:18.516Z,414.94
2016-12-04T11:31:18.241Z,417.51
2016-12-04T11:32:18.239Z,419.43
2016-12-04T11:33:18.184Z,421.36
2016-12-04T11:34:18.191Z,422.66
2016-12-04T11:35:18.876Z,424.38
2016-12-04T11:36:18.231Z,425.84
2016-12-04T11:37:18.396Z,428
2016-12-04T11:38:18.219Z,429.63
2016-12-04T11:39:18.370Z,431.13
2016-12-04T11:40:18.201Z,432.63
2016-12-04T11:41:18.186Z,434.32
2016-12-04T11:42:18.243Z,436.05
2016-12-04T11:43:18.242Z,438.19
2016-12-04T11:44:18.199Z,440.08
2016-12-04T11:45:18.190Z,441.93
2016-12-04T11:46:18.922Z,443.19
2016-12-04T11:47:18.209Z,446.16
2016-12-04T11:48:18.197Z,448.68
2016-12-04T11:49:18.183Z,450.8
2016-12-04T11:50:18.197Z,451.56
2016-12-04T11:51:18.205Z,454.14
2016-12-04T11:52:18.254Z,455.76
2016-12-04T11:53:18.198Z,457.85
2016-12-04T11:54:18.346Z,458.87
2016-12-04T11:55:18.198Z,460.56
2016-12-04T11:56:18.519Z,460.93
2016-12-04T11:57:18.276Z,462.88
2016-12-04T11:58:18.546Z,463.6
2016-12-04T11:59:19.414Z,464.85
2016-12-04T12:00:18.204Z,466.3
2016-12-04T12:01:18.211Z,467.78
2016-12-04T12:02:18.356Z,469.06
2016-12-04T12:03:18.219Z,471.76
2016-12-04T12:04:18.204Z,472.58
2016-12-04T12:05:18.202Z,474.41
2016-12-04T12:06:18.191Z,475.87
2016-12-04T12:07:18.219Z,477.34
2016-12-04T12:08:18.208Z,479.38
2016-12-04T12:09:18.199Z,480.22
2016-12-04T12:10:18.207Z,482.73
2016-12-04T12:11:18.206Z,483.73
2016-12-04T12:12:18.207Z,485.37
2016-12-04T12:13:18.254Z,486.19
2016-12-04T12:14:18.205Z,487.64
2016-12-04T12:15:18.198Z,489.32
2016-12-04T12:16:18.221Z,489.29
2016-12-04T12:17:18.234Z,491.98
2016-12-04T12:18:18.264Z,492.86
2016-12-04T12:19:18.226Z,489.8
2016-12-04T12:20:18.241Z,493.98
2016-12-04T12:21:18.245Z,495.62
2016-12-04T12:22:18.242Z,496.8
2016-12-04T12:23:18.206Z,499.31
2016-12-04T12:24:18.210Z,499.97
2016-12-04T12:25:18.218Z,501.56
2016-12-04T12:26:18.218Z,502.34
2016-12-04T12:27:18.222Z,503.78
2016-12-04T12:28:18.238Z,505.22
2016-12-04T12:29:18.425Z,506.64
2016-12-04T12:30:18.210Z,507.26
2016-12-04T12:31:18.226Z,509.29
2016-12-04T12:32:18.487Z,509.83
2016-12-04T12:33:18.224Z,511.28
2016-12-04T12:34:18.247Z,512.27
2016-12-04T12:35:18.258Z,514.08
2016-12-04T12:36:18.890Z,515.32
2016-12-04T12:37:18.250Z,516.5
2016-12-04T12:38:18.486Z,518.29
2016-12-04T12:39:18.211Z,519.65
2016-12-04T12:40:18.239Z,520.26
2016-12-04T12:41:18.251Z,522.08
2016-12-04T12:42:18.248Z,523.64
2016-12-04T12:43:18.230Z,524.48
2016-12-04T12:44:18.218Z,525.41
2016-12-04T12:45:18.223Z,526.2